Surface observations / UK / EGBB

Quebec | Canada | USA | France | UK | Europe | Elsewhere

Display: Info & Location for EGBB | Help decoding METAR

EGBB BIRMINGHAM AIRPORT -- UK
Raw surface observations for station EGBB
EGBB 230220Z AUTO 33007KT 9999 NCD 11/08 Q1025=
EGBB 230150Z AUTO 32010KT 9999 NCD 12/09 Q1025=
EGBB 230120Z AUTO 32009KT 9999 NCD 12/10 Q1025=
EGBB 230050Z AUTO 31008KT 9999 NCD 13/09 Q1025=
EGBB 230020Z 31011KT 9999 FEW012 BKN018 13/10 Q1025=
EGBB 222350Z 33009KT 9999 SCT016 13/10 Q1025=
EGBB 222320Z 33007KT 9999 SCT011 13/11 Q1025=
EGBB 222250Z 33010KT 9999 BKN013 14/11 Q1025=
EGBB 222220Z 31008KT 9999 FEW015 14/11 Q1025=
EGBB 222150Z 31011KT 9999 SCT011 BKN029 14/11 Q1025=
EGBB 222120Z 30008KT 9999 FEW014 BKN030 15/12 Q1025=
EGBB 222050Z 32009KT 9999 BKN013 OVC024 15/12 Q1024=
EGBB 222020Z 33013KT 9999 SCT016 BKN021 15/11 Q1024=
EGBB 221950Z 32012KT 9999 SCT017 BKN023 16/11 Q1024=
EGBB 221920Z 32011KT 9999 FEW017 SCT020 16/12 Q1024=
EGBB 221850Z 31010KT 9999 BKN021 SCT037 17/12 Q1023=
EGBB 221820Z 31011KT 9999 BKN021 17/12 Q1023=
EGBB 221750Z 33013KT 9999 FEW022 BKN030 18/12 Q1023=
EGBB 221720Z 32011KT 9999 FEW025 SCT045 18/12 Q1023=
EGBB 221650Z 29008KT 9999 FEW026 BKN040 18/11 Q1023=
EGBB 221620Z 30010KT 9999 VCSH BKN029 SCT043 18/12 Q1023=
EGBB 221550Z 30008KT 9999 SCT034 BKN040 19/11 Q1023=
EGBB 221520Z 29008KT 9999 BKN038 19/10 Q1023=
EGBB 221450Z 27006KT 210V330 9999 SCT036 19/11 Q1023=
EGBB 221420Z AUTO 26007KT 210V330 9999 SCT033/// BKN038/// BKN047/// 19/10 Q1023=
EGBB 221350Z 25007KT 190V300 9999 SCT030 SCT036 19/11 Q1023=
EGBB 221320Z 28007KT 9999 BKN043 19/11 Q1023=
EGBB 221250Z 24005KT 200V290 9999 SCT027 BKN037 18/12 Q1024=
EGBB 221220Z 28005KT 240V320 9999 SCT025 BKN032 18/11 Q1024=
EGBB 221150Z 26005KT 9999 BKN027 BKN035 17/10 Q1024=
EGBB 221120Z 23004KT 170V280 9999 SCT025 BKN031 17/10 Q1024=
EGBB 221050Z 26005KT 170V340 9999 SCT023 BKN028 17/10 Q1024=
EGBB 221020Z 27005KT 220V310 9999 BKN022 BKN028 16/10 Q1024=
EGBB 220950Z 21005KT 170V240 9999 BKN023 BKN032 15/10 Q1025=
EGBB 220920Z VRB03KT 9999 BKN023 15/10 Q1025=
EGBB 220850Z 24004KT 140V300 9999 SCT017 SCT026 BKN038 15/10 Q1025=
EGBB 220820Z AUTO 22005KT 180V260 9999 SCT016/// BKN038/// 14/10 Q1025=
EGBB 220750Z 24006KT 190V270 9999 BKN016 BKN043 13/09 Q1025=
EGBB 220720Z 23006KT 190V270 9999 SCT015 BKN042 12/09 Q1025=
EGBB 220650Z 22005KT 9999 BKN041 12/08 Q1025=
EGBB 220620Z 21004KT 160V250 9999 BKN039 11/08 Q1025=
EGBB 220550Z 20004KT 160V230 9999 FEW020 BKN042 11/08 Q1025=
EGBB 220520Z 21004KT 160V240 9999 BKN041 OVC048 11/07 Q1025=
EGBB 220450Z 21004KT 160V240 9999 BKN039 11/07 Q1025=
EGBB 220420Z 21005KT 160V240 9999 FEW035 BKN041 11/07 Q1025=
EGBB 220350Z 20004KT 150V230 9999 BKN040 11/07 Q1025=
EGBB 220320Z 21004KT 9999 FEW047 11/07 Q1025=
EGBB 220250Z 21003KT CAVOK 11/07 Q1025=
EGBB 220220Z 24004KT 180V290 CAVOK 11/07 Q1025=